Time;durP1;ratioP1;P1;durP2;ratioP2;P2;SDS_P1;SDS_P2;PMS_P1;PMS_P2;Temp;Humidity;BMP_temperature;BMP_pressure;BME280_temperature;BME280_humidity;BME280_pressure;Samples;Min_cycle;Max_cycle;Signal;HPM_P1;HPM_P2
2022/07/14 00:00:08;;;;;;;11.73;2.92;;;;;;;;;;5092806;27;95504;-73
2022/07/14 00:02:34;;;;;;;14.00;2.67;;;;;;;;;;5093775;27;97136;-73
2022/07/14 00:05:01;;;;;;;13.27;2.88;;;;;;;;;;5076146;27;97309;-74
2022/07/14 00:07:27;;;;;;;9.70;2.45;;;;;;;;;;5091260;27;95377;-73
2022/07/14 00:09:53;;;;;;;12.63;3.10;;;;;;;;;;5091618;27;96824;-73
2022/07/14 00:12:20;;;;;;;8.57;2.67;;;;;;;;;;5089968;27;97216;-74
2022/07/14 00:14:46;;;;;;;13.02;2.75;;;;;;;;;;5096615;27;95380;-74
2022/07/14 00:17:12;;;;;;;13.00;3.38;;;;;;;;;;5088086;27;97317;-73
2022/07/14 00:19:39;;;;;;;10.68;2.60;;;;;;;;;;5091801;27;96734;-73
2022/07/14 00:22:05;;;;;;;8.63;2.97;;;;;;;;;;5092725;27;96821;-74
2022/07/14 00:24:32;;;;;;;8.73;2.95;;;;;;;;;;5078972;27;97248;-74
2022/07/14 00:26:58;;;;;;;12.00;3.25;;;;;;;;;;5084931;27;95089;-74
2022/07/14 00:29:24;;;;;;;14.25;3.17;;;;;;;;;;5092391;27;97030;-73
2022/07/14 00:31:50;;;;;;;11.40;2.88;;;;;;;;;;5084495;27;97743;-73
2022/07/14 00:34:17;;;;;;;9.98;3.22;;;;;;;;;;5087294;27;95889;-73
2022/07/14 00:36:45;;;;;;;8.15;2.58;;;;;;;;;;5089403;27;97330;-73
2022/07/14 00:39:11;;;;;;;12.20;2.90;;;;;;;;;;5088162;27;95273;-73
2022/07/14 00:41:38;;;;;;;13.63;3.38;;;;;;;;;;5092387;27;96876;-73
2022/07/14 00:44:04;;;;;;;6.28;2.75;;;;;;;;;;5088535;27;96842;-74
2022/07/14 00:46:31;;;;;;;13.90;3.17;;;;;;;;;;5091155;27;96176;-73
2022/07/14 00:48:57;;;;;;;11.43;2.55;;;;;;;;;;5091062;27;96390;-73
2022/07/14 00:51:24;;;;;;;10.10;2.70;;;;;;;;;;5092163;27;97278;-74
2022/07/14 00:53:52;;;;;;;7.25;2.50;;;;;;;;;;5094238;27;96834;-73
2022/07/14 00:56:18;;;;;;;6.97;2.20;;;;;;;;;;5098401;27;96845;-74
2022/07/14 00:58:44;;;;;;;7.25;2.75;;;;;;;;;;5090623;27;95300;-73
2022/07/14 01:01:11;;;;;;;15.25;2.97;;;;;;;;;;5095174;27;96878;-73
2022/07/14 01:03:38;;;;;;;11.02;3.05;;;;;;;;;;5095491;27;97313;-74
2022/07/14 01:06:05;;;;;;;8.35;2.60;;;;;;;;;;5067333;27;95460;-73
2022/07/14 01:08:31;;;;;;;19.65;2.83;;;;;;;;;;5085410;27;96919;-73
2022/07/14 01:10:58;;;;;;;9.88;3.00;;;;;;;;;;5094434;27;97376;-73
2022/07/14 01:13:24;;;;;;;19.75;3.53;;;;;;;;;;5079615;27;95491;-74
2022/07/14 01:15:50;;;;;;;16.23;2.90;;;;;;;;;;5090933;27;99413;-73
2022/07/14 01:18:17;;;;;;;10.63;2.80;;;;;;;;;;5096375;27;97411;-73
2022/07/14 01:20:43;;;;;;;12.85;2.53;;;;;;;;;;5094780;27;96835;-73
2022/07/14 01:23:10;;;;;;;12.35;2.70;;;;;;;;;;5089574;27;97356;-73
2022/07/14 01:25:36;;;;;;;11.73;3.17;;;;;;;;;;5095626;27;95056;-73
2022/07/14 01:28:02;;;;;;;12.63;2.80;;;;;;;;;;5094861;27;96959;-73
2022/07/14 01:30:29;;;;;;;15.18;3.17;;;;;;;;;;5095149;27;97274;-74
2022/07/14 01:32:56;;;;;;;15.93;2.72;;;;;;;;;;5093962;27;96638;-73
2022/07/14 01:35:22;;;;;;;10.65;2.70;;;;;;;;;;5094807;27;98494;-73
2022/07/14 01:37:49;;;;;;;13.40;2.75;;;;;;;;;;5094223;27;97307;-74
2022/07/14 01:40:16;;;;;;;9.40;2.75;;;;;;;;;;5096577;27;96191;-73
2022/07/14 01:42:42;;;;;;;14.00;2.90;;;;;;;;;;5091416;27;97535;-73
2022/07/14 01:45:09;;;;;;;7.13;2.72;;;;;;;;;;5093946;27;95167;-73
2022/07/14 01:47:35;;;;;;;9.73;2.53;;;;;;;;;;5093937;27;96886;-73
2022/07/14 01:50:02;;;;;;;12.85;2.92;;;;;;;;;;5092833;27;97340;-73
2022/07/14 01:52:29;;;;;;;10.38;3.35;;;;;;;;;;5094971;27;95386;-73
2022/07/14 01:54:56;;;;;;;9.25;2.70;;;;;;;;;;5094202;27;95909;-73
2022/07/14 01:57:22;;;;;;;15.27;2.97;;;;;;;;;;5091875;27;97687;-73
2022/07/14 01:59:49;;;;;;;12.63;2.80;;;;;;;;;;5087625;27;96701;-73
2022/07/14 02:02:18;;;;;;;12.60;3.05;;;;;;;;;;5099006;27;96558;-73
2022/07/14 02:04:44;;;;;;;12.35;2.67;;;;;;;;;;5094307;27;95402;-73
2022/07/14 02:07:10;;;;;;;8.95;3.00;;;;;;;;;;5093323;27;96876;-73
2022/07/14 02:12:22;;;;;;;10.27;2.58;;;;;;;;;;5094833;27;95199;-73
2022/07/14 02:14:48;;;;;;;7.72;2.35;;;;;;;;;;5092989;27;96709;-73
2022/07/14 02:17:15;;;;;;;8.75;2.20;;;;;;;;;;5093480;27;97448;-73
2022/07/14 02:19:41;;;;;;;8.68;2.28;;;;;;;;;;5092596;27;97671;-73
2022/07/14 02:22:07;;;;;;;6.75;2.50;;;;;;;;;;5093760;27;96469;-73
2022/07/14 02:24:35;;;;;;;6.72;2.65;;;;;;;;;;5094726;27;97377;-73
2022/07/14 02:27:01;;;;;;;6.03;2.60;;;;;;;;;;5095052;27;96801;-73
2022/07/14 02:29:27;;;;;;;9.48;2.92;;;;;;;;;;5093563;27;97137;-74
2022/07/14 02:31:54;;;;;;;10.20;2.40;;;;;;;;;;5093976;27;95234;-73
2022/07/14 02:34:21;;;;;;;5.03;2.30;;;;;;;;;;5092523;27;96045;-74
2022/07/14 02:36:47;;;;;;;10.65;2.80;;;;;;;;;;5095035;27;97346;-74
2022/07/14 02:39:14;;;;;;;17.10;2.88;;;;;;;;;;5088553;27;95467;-74
2022/07/14 02:41:42;;;;;;;8.20;2.67;;;;;;;;;;5094485;27;96741;-73
2022/07/14 02:44:09;;;;;;;6.72;2.55;;;;;;;;;;5097200;27;96287;-73
2022/07/14 02:46:36;;;;;;;7.43;2.60;;;;;;;;;;5094595;27;96832;-73
2022/07/14 02:49:03;;;;;;;8.50;2.95;;;;;;;;;;5088216;27;97465;-73
2022/07/14 02:51:30;;;;;;;23.83;3.17;;;;;;;;;;5056155;27;96052;-73
2022/07/14 02:53:56;;;;;;;10.77;2.97;;;;;;;;;;5090932;27;96895;-73
2022/07/14 02:56:23;;;;;;;8.05;2.50;;;;;;;;;;5093565;27;97710;-73
2022/07/14 02:58:49;;;;;;;7.25;2.72;;;;;;;;;;5092319;27;95251;-73
2022/07/14 03:01:15;;;;;;;10.52;2.90;;;;;;;;;;5093420;27;96909;-73
2022/07/14 03:03:42;;;;;;;5.57;2.50;;;;;;;;;;5089146;27;97222;-72
2022/07/14 03:06:12;;;;;;;6.82;2.60;;;;;;;;;;5097518;27;95301;-73
2022/07/14 03:08:39;;;;;;;9.57;3.08;;;;;;;;;;5092191;27;97289;-73
2022/07/14 03:11:05;;;;;;;8.82;2.97;;;;;;;;;;5093444;27;95002;-74
2022/07/14 03:13:33;;;;;;;12.20;3.00;;;;;;;;;;5091540;27;97093;-74
2022/07/14 03:15:59;;;;;;;6.30;2.90;;;;;;;;;;5092562;27;99162;-73
2022/07/14 03:18:26;;;;;;;5.93;2.88;;;;;;;;;;5089711;27;96722;-74
2022/07/14 03:20:53;;;;;;;6.57;2.40;;;;;;;;;;5092936;27;95643;-73
2022/07/14 03:23:20;;;;;;;6.57;2.70;;;;;;;;;;5074069;27;96573;-72
2022/07/14 03:25:46;;;;;;;8.35;2.67;;;;;;;;;;5094044;27;95307;-74
2022/07/14 03:28:13;;;;;;;7.18;2.35;;;;;;;;;;5095829;27;96902;-72
2022/07/14 03:30:40;;;;;;;6.70;2.60;;;;;;;;;;5092657;27;95370;-74
2022/07/14 03:33:06;;;;;;;8.77;2.70;;;;;;;;;;5088774;27;97052;-73
2022/07/14 03:35:35;;;;;;;5.35;2.30;;;;;;;;;;5075197;27;97488;-73
2022/07/14 03:38:02;;;;;;;5.65;2.40;;;;;;;;;;5091760;27;95289;-73
2022/07/14 03:40:48;;;;;;;7.25;2.30;;;;;;;;;;5092890;27;98136;-74
2022/07/14 03:43:14;;;;;;;6.72;2.25;;;;;;;;;;5090777;27;97429;-73
2022/07/14 03:45:41;;;;;;;4.72;2.20;;;;;;;;;;5092475;27;95295;-73
2022/07/14 03:48:07;;;;;;;6.35;2.53;;;;;;;;;;5090489;27;96991;-73
2022/07/14 03:50:35;;;;;;;8.23;2.40;;;;;;;;;;5093870;27;97305;-73
2022/07/14 03:53:01;;;;;;;4.55;2.13;;;;;;;;;;5093529;27;96863;-73
2022/07/14 03:55:27;;;;;;;6.93;2.25;;;;;;;;;;5093103;27;97744;-73
2022/07/14 03:57:54;;;;;;;6.80;2.33;;;;;;;;;;5090786;27;95307;-73
2022/07/14 04:00:20;;;;;;;4.72;2.15;;;;;;;;;;5087813;27;96767;-73
2022/07/14 04:02:47;;;;;;;20.88;2.28;;;;;;;;;;5093383;27;97646;-74
2022/07/14 04:05:13;;;;;;;6.18;2.15;;;;;;;;;;5093105;27;95349;-73
2022/07/14 04:07:40;;;;;;;6.82;2.25;;;;;;;;;;5091634;27;97610;-73
2022/07/14 04:10:07;;;;;;;4.50;2.13;;;;;;;;;;5091342;27;97319;-73
2022/07/14 04:12:33;;;;;;;4.32;2.10;;;;;;;;;;5094582;27;95459;-74
2022/07/14 04:15:04;;;;;;;9.75;2.50;;;;;;;;;;5086774;27;98574;-73
2022/07/14 04:17:30;;;;;;;6.72;2.28;;;;;;;;;;5075127;27;95299;-73
2022/07/14 04:19:56;;;;;;;8.43;2.38;;;;;;;;;;5090606;27;96783;-73
2022/07/14 04:22:23;;;;;;;8.45;2.83;;;;;;;;;;5090177;27;96126;-73
2022/07/14 04:25:06;;;;;;;6.70;2.30;;;;;;;;;;5093404;27;95176;-73
2022/07/14 04:27:32;;;;;;;4.82;2.33;;;;;;;;;;5094392;27;96624;-74
2022/07/14 04:29:59;;;;;;;10.65;2.25;;;;;;;;;;5094222;27;97287;-73
2022/07/14 04:32:25;;;;;;;10.07;2.40;;;;;;;;;;5095841;27;95333;-73
2022/07/14 04:34:51;;;;;;;6.63;2.15;;;;;;;;;;5099145;27;96266;-73
2022/07/14 04:37:18;;;;;;;6.65;1.92;;;;;;;;;;5096602;27;95274;-73
2022/07/14 04:39:44;;;;;;;4.47;2.42;;;;;;;;;;5094262;27;96975;-74
2022/07/14 04:42:10;;;;;;;7.20;1.98;;;;;;;;;;5095582;27;97557;-74
2022/07/14 04:44:37;;;;;;;7.00;2.15;;;;;;;;;;5092111;27;95448;-73
2022/07/14 04:47:04;;;;;;;10.90;2.72;;;;;;;;;;5094210;27;97633;-73
2022/07/14 20:32:48;;;;;;;9.63;2.22;;;;;;;;;;5047997;27;95312;-75
2022/07/14 20:35:16;;;;;;;12.88;2.45;;;;;;;;;;5025606;27;97346;-73
2022/07/14 20:37:44;;;;;;;8.32;2.10;;;;;;;;;;5026604;27;95338;-72
2022/07/14 20:40:17;;;;;;;8.85;1.92;;;;;;;;;;5009908;28;96549;-72
2022/07/14 20:42:44;;;;;;;10.27;2.38;;;;;;;;;;5027943;27;96709;-73
2022/07/14 20:45:12;;;;;;;7.55;2.03;;;;;;;;;;5025382;27;96020;-72
2022/07/14 20:47:38;;;;;;;11.85;2.10;;;;;;;;;;5026400;27;95938;-72
2022/07/14 20:50:05;;;;;;;10.63;2.63;;;;;;;;;;5029135;27;97240;-74
2022/07/14 20:52:32;;;;;;;7.78;2.08;;;;;;;;;;5028770;27;95840;-74
2022/07/14 20:54:58;;;;;;;9.65;2.05;;;;;;;;;;5028058;27;97361;-75
2022/07/14 20:57:24;;;;;;;9.73;2.38;;;;;;;;;;5028327;27;95199;-75
2022/07/14 20:59:51;;;;;;;10.25;2.42;;;;;;;;;;5025403;27;98335;-75
2022/07/14 21:02:17;;;;;;;7.30;2.28;;;;;;;;;;5026583;28;97233;-74
2022/07/14 21:04:45;;;;;;;10.05;2.67;;;;;;;;;;5027834;27;95291;-74
2022/07/14 21:07:13;;;;;;;6.57;2.10;;;;;;;;;;5027282;27;96811;-75
2022/07/14 21:09:40;;;;;;;9.70;2.58;;;;;;;;;;5028490;28;97561;-75
2022/07/14 21:12:07;;;;;;;8.18;2.53;;;;;;;;;;5027340;27;96125;-75
2022/07/14 21:14:33;;;;;;;9.10;2.40;;;;;;;;;;5027398;27;96758;-75
2022/07/14 21:17:00;;;;;;;8.70;2.75;;;;;;;;;;5028603;27;95202;-74
2022/07/14 21:19:26;;;;;;;9.18;2.05;;;;;;;;;;5025884;27;96954;-74
2022/07/14 21:21:52;;;;;;;7.95;2.15;;;;;;;;;;5028600;28;97330;-74
2022/07/14 21:24:19;;;;;;;9.02;2.30;;;;;;;;;;5027523;27;95296;-75
2022/07/14 21:26:45;;;;;;;10.38;2.10;;;;;;;;;;5026702;27;97562;-75
2022/07/14 21:29:11;;;;;;;7.90;2.17;;;;;;;;;;5028752;28;97339;-74
2022/07/14 21:31:37;;;;;;;6.68;2.13;;;;;;;;;;5027897;28;95342;-74
2022/07/14 21:34:04;;;;;;;7.45;2.20;;;;;;;;;;5026096;27;96890;-74
2022/07/14 21:36:30;;;;;;;7.47;2.20;;;;;;;;;;5030078;27;97629;-75
2022/07/14 21:38:57;;;;;;;7.72;2.17;;;;;;;;;;5028021;28;97247;-75
2022/07/14 21:41:23;;;;;;;5.30;1.80;;;;;;;;;;5025657;27;97233;-75
2022/07/14 21:43:50;;;;;;;6.57;2.15;;;;;;;;;;5015386;28;96003;-74
2022/07/14 21:46:16;;;;;;;8.02;1.80;;;;;;;;;;5014229;28;96833;-73
2022/07/14 21:48:43;;;;;;;6.00;1.52;;;;;;;;;;5014277;28;97305;-74
2022/07/14 21:51:09;;;;;;;6.22;1.75;;;;;;;;;;4997482;28;95323;-74
2022/07/14 21:53:36;;;;;;;7.30;1.83;;;;;;;;;;5013418;28;96765;-74
2022/07/14 21:56:03;;;;;;;8.55;1.92;;;;;;;;;;5011245;28;97673;-75
2022/07/14 21:58:29;;;;;;;6.93;1.70;;;;;;;;;;5017130;28;95240;-74
2022/07/14 22:00:55;;;;;;;8.43;2.33;;;;;;;;;;5013967;28;96232;-75
2022/07/14 22:03:22;;;;;;;13.68;2.13;;;;;;;;;;5014015;28;95320;-75
2022/07/14 22:05:48;;;;;;;5.05;1.48;;;;;;;;;;5008497;28;95952;-75
2022/07/14 22:08:14;;;;;;;4.53;1.48;;;;;;;;;;5012245;28;97132;-75
2022/07/14 22:10:41;;;;;;;10.77;2.03;;;;;;;;;;5013641;28;95315;-75
2022/07/14 22:13:07;;;;;;;5.22;1.65;;;;;;;;;;5014718;28;97071;-74
2022/07/14 22:15:34;;;;;;;5.85;1.58;;;;;;;;;;5011121;28;97415;-75
2022/07/14 22:18:01;;;;;;;5.38;1.73;;;;;;;;;;5015004;28;95105;-74
2022/07/14 22:20:47;;;;;;;7.82;2.28;;;;;;;;;;5017418;28;96847;-74
2022/07/14 22:23:13;;;;;;;5.95;1.70;;;;;;;;;;5013327;28;96597;-74
2022/07/14 22:25:40;;;;;;;4.50;1.48;;;;;;;;;;5011395;28;97895;-74
2022/07/14 22:28:06;;;;;;;6.47;1.90;;;;;;;;;;5013643;28;97392;-74
2022/07/14 22:30:32;;;;;;;12.40;2.75;;;;;;;;;;5013832;28;95354;-75
2022/07/14 22:32:59;;;;;;;7.50;2.45;;;;;;;;;;5013534;28;95216;-74
2022/07/14 22:35:26;;;;;;;9.75;2.45;;;;;;;;;;5012467;28;97264;-73
2022/07/14 22:37:52;;;;;;;7.50;1.80;;;;;;;;;;5012776;28;95741;-74
2022/07/14 22:40:19;;;;;;;5.05;1.90;;;;;;;;;;5010695;28;96297;-74
2022/07/14 22:42:45;;;;;;;8.60;1.83;;;;;;;;;;5016896;28;95316;-74
2022/07/14 22:45:12;;;;;;;6.53;1.80;;;;;;;;;;5013197;28;96879;-73
2022/07/14 22:47:38;;;;;;;9.18;1.77;;;;;;;;;;5012526;28;97356;-73
2022/07/14 22:50:05;;;;;;;6.38;1.70;;;;;;;;;;5013521;28;95270;-75
2022/07/14 22:52:31;;;;;;;9.75;2.67;;;;;;;;;;5013450;28;97095;-74
2022/07/14 22:54:59;;;;;;;8.70;1.73;;;;;;;;;;5009498;28;97404;-75
2022/07/14 22:57:25;;;;;;;5.07;1.65;;;;;;;;;;5012911;28;95267;-74
2022/07/14 22:59:51;;;;;;;10.50;1.80;;;;;;;;;;5013333;28;97360;-74
2022/07/14 23:02:19;;;;;;;5.65;1.80;;;;;;;;;;5013883;28;97479;-74
2022/07/14 23:04:46;;;;;;;6.85;1.55;;;;;;;;;;5012331;28;95789;-74
2022/07/14 23:07:13;;;;;;;5.85;1.55;;;;;;;;;;5012238;28;97310;-74
2022/07/14 23:09:39;;;;;;;5.28;1.98;;;;;;;;;;5009569;28;95272;-74
2022/07/14 23:17:44;;;;;;;8.50;1.73;;;;;;;;;;5011735;28;96784;-75
2022/07/14 23:20:13;;;;;;;6.97;1.77;;;;;;;;;;5013662;28;96640;-75
2022/07/14 23:22:39;;;;;;;6.15;1.60;;;;;;;;;;5012802;28;97360;-74
2022/07/14 23:25:05;;;;;;;8.32;1.63;;;;;;;;;;5014852;28;96274;-74
2022/07/14 23:27:32;;;;;;;7.05;1.70;;;;;;;;;;5008652;28;97115;-74
2022/07/14 23:29:58;;;;;;;5.55;1.55;;;;;;;;;;5012549;28;95341;-74
2022/07/14 23:32:24;;;;;;;8.73;1.77;;;;;;;;;;5010727;28;96735;-74
2022/07/14 23:34:51;;;;;;;7.45;1.80;;;;;;;;;;5010972;28;97630;-74
2022/07/14 23:37:17;;;;;;;6.57;1.85;;;;;;;;;;5012207;28;95223;-74
2022/07/14 23:39:43;;;;;;;10.23;2.15;;;;;;;;;;5004279;28;96784;-73
2022/07/14 23:42:10;;;;;;;9.35;1.75;;;;;;;;;;5009518;28;97279;-74
2022/07/14 23:44:37;;;;;;;9.75;1.92;;;;;;;;;;5013193;28;95395;-74
2022/07/14 23:47:03;;;;;;;5.50;1.60;;;;;;;;;;5015025;28;96696;-74
2022/07/14 23:49:29;;;;;;;7.80;1.85;;;;;;;;;;5010556;28;95294;-74
2022/07/14 23:51:56;;;;;;;3.80;1.67;;;;;;;;;;5011053;28;96748;-74
2022/07/14 23:54:23;;;;;;;11.23;1.75;;;;;;;;;;5012186;28;97536;-74
2022/07/14 23:56:49;;;;;;;6.88;1.65;;;;;;;;;;5013126;28;95300;-74
2022/07/14 23:59:15;;;;;;;5.55;1.50;;;;;;;;;;5011719;28;96694;-74
